Time;durP1;ratioP1;P1;durP2;ratioP2;P2;SDS_P1;SDS_P2;PMS_P1;PMS_P2;Temp;Humidity;BMP_temperature;BMP_pressure;BME280_temperature;BME280_humidity;BME280_pressure;Samples;Min_cycle;Max_cycle;Signal;HPM_P1;HPM_P2
2022/02/02 00:00:41;;;;;;;15.30;3.50;;;13.10;63.70;;;;;;5092040;28;20072;-76
2022/02/02 00:03:10;;;;;;;16.75;4.65;;;13.00;63.80;;;;;;5090381;28;20051;-74
2022/02/02 00:13:43;;;;;;;17.67;4.30;;;13.00;63.90;;;;;;5085964;28;20051;-74
2022/02/02 00:16:42;;;;;;;15.60;3.97;;;13.00;64.00;;;;;;5098367;28;20043;-73
2022/02/02 00:19:16;;;;;;;21.23;5.03;;;13.00;63.80;;;;;;5084457;28;20670;-74
2022/02/02 00:21:47;;;;;;;15.23;4.18;;;13.10;63.80;;;;;;5077905;28;20048;-74
2022/02/02 00:24:24;;;;;;;17.92;3.72;;;13.00;63.30;;;;;;5077986;28;20114;-74
2022/02/02 00:26:54;;;;;;;16.77;4.00;;;13.00;63.30;;;;;;5078058;28;20048;-75
2022/02/02 00:29:23;;;;;;;15.73;3.70;;;13.00;63.10;;;;;;5078988;28;20118;-75
2022/02/02 00:31:57;;;;;;;19.65;4.10;;;13.00;62.20;;;;;;5078264;28;20052;-74
2022/02/02 00:34:26;;;;;;;11.57;3.45;;;13.00;62.10;;;;;;5085768;28;20071;-76
2022/02/02 00:39:20;;;;;;;15.00;3.60;;;12.90;62.20;;;;;;5080327;28;20087;-74
2022/02/02 00:41:46;;;;;;;14.93;3.88;;;12.90;62.20;;;;;;5072952;28;20087;-74
2022/02/02 00:44:15;;;;;;;16.65;4.22;;;12.90;62.30;;;;;;5092392;28;20048;-74
2022/02/02 00:46:41;;;;;;;13.68;3.90;;;12.90;62.20;;;;;;5078551;28;20051;-73
2022/02/02 00:49:07;;;;;;;12.55;3.08;;;12.90;62.10;;;;;;5078383;28;20048;-75
2022/02/02 00:54:05;;;;;;;13.27;3.35;;;12.90;62.40;;;;;;5080528;28;20060;-73
2022/02/02 00:56:31;;;;;;;14.52;3.80;;;12.90;62.50;;;;;;5073991;28;20063;-74
2022/02/02 00:58:57;;;;;;;13.60;3.28;;;12.90;62.20;;;;;;5078116;28;20059;-74
2022/02/02 01:01:22;;;;;;;16.27;3.95;;;12.90;62.00;;;;;;5076942;28;20443;-74
2022/02/02 01:03:48;;;;;;;15.07;3.95;;;12.90;62.60;;;;;;5077259;28;20053;-75
2022/02/02 01:06:18;;;;;;;11.73;3.20;;;12.90;62.20;;;;;;5076805;28;20103;-73
2022/02/02 01:09:06;;;;;;;14.05;3.67;;;12.90;62.30;;;;;;5077366;28;20080;-74
2022/02/02 01:22:14;;;;;;;17.52;3.80;;;12.80;62.20;;;;;;5063325;28;20044;-75
2022/02/02 01:29:51;;;;;;;17.35;4.05;;;12.70;61.70;;;;;;5095050;28;20127;-74
2022/02/02 01:32:17;;;;;;;12.27;3.60;;;12.60;61.80;;;;;;5096835;28;20126;-73
2022/02/02 01:34:43;;;;;;;15.20;3.50;;;12.70;62.30;;;;;;5096374;28;20062;-74
2022/02/02 01:37:09;;;;;;;18.70;3.95;;;12.70;62.30;;;;;;5096707;28;20094;-74
2022/02/02 01:39:35;;;;;;;14.45;3.55;;;12.70;62.60;;;;;;5086364;28;20363;-74
2022/02/02 01:42:04;;;;;;;20.17;4.18;;;12.60;62.30;;;;;;5087653;28;20430;-76
2022/02/02 01:44:48;;;;;;;18.70;4.20;;;12.60;62.20;;;;;;5076334;28;20451;-74
2022/02/02 01:47:14;;;;;;;19.00;4.68;;;12.60;62.00;;;;;;5076570;28;20044;-73
2022/02/02 01:53:01;;;;;;;17.13;3.95;;;12.60;62.20;;;;;;5066591;28;20045;-74
2022/02/02 01:55:17;;;;;;;16.73;4.57;;;12.60;62.40;;;;;;5087386;28;20048;-74
2022/02/02 02:00:15;;;;;;;17.05;3.25;;;12.60;62.50;;;;;;5095006;28;20138;-74
2022/02/02 02:02:40;;;;;;;18.08;3.92;;;12.70;62.60;;;;;;5090259;28;20119;-73
2022/02/02 02:05:07;;;;;;;15.00;3.58;;;12.60;62.20;;;;;;5078464;28;20083;-73
2022/02/02 02:07:33;;;;;;;14.82;3.60;;;12.70;62.60;;;;;;5087452;28;20040;-75
2022/02/02 02:09:59;;;;;;;19.15;4.22;;;12.60;62.40;;;;;;5093802;28;20173;-75
2022/02/02 02:12:45;;;;;;;19.17;4.55;;;12.60;62.40;;;;;;5096434;28;20487;-75
2022/02/02 02:15:13;;;;;;;18.15;3.72;;;12.60;62.40;;;;;;5095669;28;20044;-73
2022/02/02 02:17:39;;;;;;;16.15;4.32;;;12.60;62.50;;;;;;5094515;28;20114;-74
2022/02/02 02:20:05;;;;;;;15.05;3.90;;;12.60;62.60;;;;;;5095814;28;20065;-74
2022/02/02 02:22:35;;;;;;;15.82;4.22;;;12.50;62.50;;;;;;5085964;28;20076;-75
2022/02/02 02:25:01;;;;;;;17.05;4.07;;;12.50;62.40;;;;;;5090217;28;20055;-76
2022/02/02 02:27:27;;;;;;;16.30;4.22;;;12.50;62.40;;;;;;5078331;28;20036;-75
2022/02/02 02:37:48;;;;;;;17.33;4.28;;;12.60;62.60;;;;;;5077593;28;20127;-74
2022/02/02 02:56:21;;;;;;;12.83;3.23;;;12.50;62.20;;;;;;5075443;28;19975;-74
2022/02/02 02:58:59;;;;;;;19.48;4.20;;;12.50;62.50;;;;;;5075474;28;20113;-75
2022/02/02 03:02:38;;;;;;;23.55;3.85;;;12.50;62.90;;;;;;5078643;28;20083;-75
2022/02/02 03:34:41;;;;;;;14.35;3.42;;;12.40;63.20;;;;;;5076525;28;20040;-75
2022/02/02 03:51:53;;;;;;;10.48;2.42;;;12.30;62.20;;;;;;5060941;28;20040;-75
2022/02/02 03:56:35;;;;;;;11.73;3.40;;;12.30;62.60;;;;;;5082578;28;20048;-73
2022/02/02 04:06:26;;;;;;;16.65;4.32;;;12.30;63.00;;;;;;5098429;28;20121;-73
2022/02/02 04:08:51;;;;;;;11.65;3.00;;;12.20;62.90;;;;;;5097553;28;20119;-74
2022/02/02 04:11:29;;;;;;;14.25;3.38;;;12.20;62.40;;;;;;5073577;28;20144;-76
2022/02/02 04:55:52;;;;;;;16.85;3.88;;;12.20;63.30;;;;;;5065884;28;20109;-74
2022/02/02 05:08:54;;;;;;;11.75;3.15;;;12.10;63.10;;;;;;5079656;28;20063;-75
2022/02/02 05:16:30;;;;;;;16.55;3.45;;;12.10;63.30;;;;;;5097020;28;20059;-76
2022/02/02 05:22:05;;;;;;;16.58;3.63;;;12.10;63.20;;;;;;5076965;28;20045;-76
2022/02/02 05:48:56;;;;;;;18.30;3.83;;;12.30;63.70;;;;;;5089746;28;20070;-77
2022/02/02 05:51:23;;;;;;;16.00;3.28;;;12.50;63.40;;;;;;5075828;28;20037;-79
2022/02/02 05:53:52;;;;;;;8.82;2.35;;;12.70;63.10;;;;;;5059048;28;20041;-78
2022/02/02 05:56:18;;;;;;;12.52;2.80;;;12.70;63.60;;;;;;5075412;28;20067;-75
2022/02/02 05:58:47;;;;;;;13.40;3.28;;;12.90;64.20;;;;;;5086601;28;20078;-75
2022/02/02 06:01:14;;;;;;;77.18;7.53;;;13.00;63.80;;;;;;5095720;28;20059;-78
2022/02/02 06:03:52;;;;;;;11.57;3.17;;;13.10;64.50;;;;;;5057036;28;20053;-78
2022/02/02 06:06:19;;;;;;;11.27;2.53;;;13.30;64.40;;;;;;5075379;28;20060;-77
2022/02/02 06:08:49;;;;;;;11.90;3.35;;;13.60;63.60;;;;;;5058220;28;20060;-78
2022/02/02 06:11:18;;;;;;;13.88;2.50;;;13.90;63.40;;;;;;5061997;28;20104;-76
2022/02/02 06:13:51;;;;;;;21.15;2.75;;;14.30;63.10;;;;;;5074875;28;20059;-78
2022/02/02 06:16:18;;;;;;;12.57;2.58;;;14.60;62.80;;;;;;5058077;28;20048;-76
2022/02/02 06:18:46;;;;;;;16.73;3.55;;;14.80;62.80;;;;;;5075293;28;20047;-80
2022/02/02 06:21:14;;;;;;;18.27;3.28;;;15.00;63.10;;;;;;5075826;28;20047;-80
2022/02/02 06:23:52;;;;;;;34.53;3.97;;;15.20;63.30;;;;;;5058107;28;20528;-78
2022/02/02 06:26:19;;;;;;;37.95;5.30;;;15.40;63.30;;;;;;5057825;28;20063;-74
2022/02/02 06:28:49;;;;;;;20.42;4.30;;;15.50;63.20;;;;;;5075758;28;20060;-77
2022/02/02 06:31:15;;;;;;;27.88;4.15;;;15.70;63.50;;;;;;5062044;28;20123;-80
2022/02/02 06:33:42;;;;;;;24.90;4.75;;;15.80;63.30;;;;;;5060064;28;20076;-81
2022/02/02 06:36:11;;;;;;;16.90;3.97;;;15.80;63.30;;;;;;5075497;28;20053;-78
2022/02/02 06:38:38;;;;;;;22.17;3.65;;;15.90;63.30;;;;;;5041202;28;20036;-81
2022/02/02 06:41:05;;;;;;;20.95;3.80;;;15.90;63.00;;;;;;5075357;28;20044;-78
2022/02/02 06:43:31;;;;;;;17.40;3.10;;;16.00;63.20;;;;;;5074954;28;20040;-80
2022/02/02 06:46:00;;;;;;;22.85;3.25;;;16.10;63.40;;;;;;5057439;28;20044;-80
2022/02/02 06:48:29;;;;;;;15.00;3.75;;;16.20;63.10;;;;;;5075080;28;20044;-79
2022/02/02 06:51:02;;;;;;;16.33;3.60;;;16.20;63.00;;;;;;5075256;28;20052;-81
2022/02/02 06:53:40;;;;;;;16.30;3.50;;;16.30;63.20;;;;;;5057873;28;20055;-78
2022/02/02 06:56:38;;;;;;;16.45;3.08;;;16.40;63.00;;;;;;5075299;28;20044;-74
2022/02/02 07:12:15;;;;;;;16.98;2.60;;;17.00;62.50;;;;;;5050107;28;20040;-80
2022/02/02 07:14:27;;;;;;;16.48;3.50;;;17.10;62.10;;;;;;5065248;28;20064;-78
2022/02/02 07:25:15;;;;;;;17.27;2.65;;;16.90;60.90;;;;;;5115262;28;20051;-79
2022/02/02 07:30:23;;;;;;;17.58;3.42;;;16.90;61.10;;;;;;5094477;28;20048;-78
2022/02/02 07:33:02;;;;;;;16.58;3.30;;;16.90;61.20;;;;;;5044575;28;20036;-79
2022/02/02 07:35:39;;;;;;;10.15;3.05;;;16.80;61.10;;;;;;5056418;28;20055;-79
2022/02/02 07:38:14;;;;;;;20.40;3.65;;;16.80;61.20;;;;;;5064534;28;20345;-78
2022/02/02 07:40:46;;;;;;;13.60;3.10;;;16.80;61.60;;;;;;5074873;28;20111;-77
2022/02/02 07:43:23;;;;;;;15.77;2.75;;;16.80;62.10;;;;;;5070602;28;20044;-76
2022/02/02 07:46:01;;;;;;;9.15;2.60;;;16.90;62.70;;;;;;5066945;28;20052;-79
2022/02/02 07:48:35;;;;;;;17.02;3.22;;;16.80;63.60;;;;;;5074893;28;20091;-78
2022/02/02 07:51:03;;;;;;;15.63;3.38;;;16.80;63.30;;;;;;5074464;28;20363;-79
2022/02/02 07:53:37;;;;;;;11.73;2.40;;;16.80;63.70;;;;;;5074454;28;20048;-78
2022/02/02 07:56:09;;;;;;;12.88;2.28;;;16.80;63.90;;;;;;5088341;28;20105;-78
2022/02/02 07:58:40;;;;;;;15.75;3.03;;;16.80;63.80;;;;;;5073202;28;20048;-76
2022/02/02 08:01:07;;;;;;;14.43;2.92;;;16.80;63.70;;;;;;5074327;28;20123;-76
2022/02/02 08:03:38;;;;;;;8.20;2.72;;;16.80;63.60;;;;;;5074517;28;20115;-75
2022/02/02 08:06:06;;;;;;;11.70;2.83;;;16.80;63.50;;;;;;5074285;28;20117;-77
2022/02/02 08:08:35;;;;;;;11.40;2.72;;;16.80;64.10;;;;;;5074071;28;20379;-77
2022/02/02 08:11:05;;;;;;;10.93;2.85;;;16.70;63.50;;;;;;5074311;28;20368;-76
2022/02/02 08:13:41;;;;;;;11.75;2.67;;;16.70;63.60;;;;;;5070425;28;20474;-77
2022/02/02 08:16:11;;;;;;;16.85;2.58;;;16.60;63.50;;;;;;5077246;28;20337;-78
2022/02/02 08:18:39;;;;;;;12.65;2.65;;;16.60;63.50;;;;;;5095226;28;20048;-77
2022/02/02 08:21:04;;;;;;;15.43;3.00;;;16.50;63.50;;;;;;5080112;28;20216;-78
2022/02/02 08:23:31;;;;;;;10.10;2.35;;;16.50;63.60;;;;;;5084459;28;20052;-77
2022/02/02 08:25:59;;;;;;;13.30;3.30;;;16.40;63.60;;;;;;5060289;28;20056;-75
2022/02/02 08:28:25;;;;;;;10.18;2.83;;;16.40;63.70;;;;;;5077894;28;20052;-77
2022/02/02 08:30:51;;;;;;;8.35;2.60;;;16.30;63.70;;;;;;5060605;28;20344;-77
2022/02/02 08:33:22;;;;;;;8.82;2.33;;;16.30;63.70;;;;;;5088087;28;20071;-77
2022/02/02 08:35:53;;;;;;;13.40;2.45;;;16.30;63.80;;;;;;5098370;28;20075;-75
2022/02/02 08:38:35;;;;;;;10.57;2.45;;;16.20;63.80;;;;;;5098628;28;20339;-77
2022/02/02 08:41:08;;;;;;;10.35;2.83;;;16.10;64.40;;;;;;5097818;28;20053;-77
2022/02/02 08:43:49;;;;;;;13.77;2.72;;;16.10;63.80;;;;;;5076593;28;20044;-77
2022/02/02 08:46:35;;;;;;;12.30;2.65;;;16.00;63.80;;;;;;5060113;28;20052;-76
2022/02/02 08:49:05;;;;;;;7.53;2.20;;;16.00;63.80;;;;;;5077475;28;20056;-76
2022/02/02 08:51:37;;;;;;;8.55;2.67;;;16.00;63.80;;;;;;5059787;28;20056;-77
2022/02/02 08:59:10;;;;;;;7.35;2.17;;;15.80;63.60;;;;;;5077470;28;20044;-75
2022/02/02 09:01:37;;;;;;;9.00;2.60;;;15.80;63.60;;;;;;5077400;28;20080;-74
2022/02/02 09:06:48;;;;;;;10.52;2.60;;;15.70;63.70;;;;;;5059653;28;20056;-74
2022/02/02 09:09:17;;;;;;;9.40;2.38;;;15.70;63.80;;;;;;5077441;28;20044;-75
2022/02/02 09:23:27;;;;;;;10.98;2.40;;;15.50;63.80;;;;;;5076548;28;20162;-75
2022/02/02 09:25:43;;;;;;;10.95;2.42;;;15.50;63.80;;;;;;5051154;28;20048;-74
2022/02/02 09:35:57;;;;;;;7.10;2.00;;;15.40;64.00;;;;;;5097339;28;20424;-74
2022/02/02 09:38:23;;;;;;;9.13;2.10;;;15.40;64.10;;;;;;5096945;28;20150;-75
2022/02/02 09:43:25;;;;;;;8.63;2.47;;;15.40;63.90;;;;;;5087196;28;20082;-75
2022/02/02 09:45:58;;;;;;;9.02;2.35;;;15.40;63.80;;;;;;5076720;28;20071;-75
2022/02/02 09:48:32;;;;;;;6.35;1.92;;;15.40;63.60;;;;;;5076810;28;20101;-75
2022/02/02 09:51:05;;;;;;;9.13;2.00;;;15.40;63.50;;;;;;5058548;28;20451;-75
2022/02/02 09:53:36;;;;;;;6.75;2.17;;;15.50;63.60;;;;;;5085926;28;20048;-73
2022/02/02 09:56:11;;;;;;;14.43;2.33;;;15.40;63.40;;;;;;5096893;28;20409;-75
2022/02/02 10:01:45;;;;;;;10.57;2.40;;;15.40;62.20;;;;;;5096810;28;20056;-75
2022/02/02 10:07:32;;;;;;;14.27;2.60;;;15.30;61.30;;;;;;5077107;28;20135;-76
2022/02/02 10:10:49;;;;;;;9.93;2.40;;;15.30;61.20;;;;;;5086980;28;20044;-77
2022/02/02 10:15:58;;;;;;;11.88;2.72;;;15.30;61.30;;;;;;5096466;28;20051;-78
2022/02/02 10:18:30;;;;;;;10.60;2.80;;;15.30;61.60;;;;;;5109668;28;20054;-75
2022/02/02 10:20:56;;;;;;;11.23;2.40;;;15.30;61.70;;;;;;5116219;28;20055;-75
2022/02/02 10:23:28;;;;;;;7.60;2.40;;;15.30;62.10;;;;;;5098787;28;20175;-75
2022/02/02 10:25:58;;;;;;;10.10;2.28;;;15.30;62.20;;;;;;5107859;28;20040;-77
2022/02/02 10:28:29;;;;;;;10.43;1.80;;;15.30;62.40;;;;;;5095774;28;20044;-77
2022/02/02 10:31:01;;;;;;;11.75;2.60;;;15.30;62.30;;;;;;5094497;28;20052;-76
2022/02/02 10:33:29;;;;;;;9.05;2.63;;;15.00;61.50;;;;;;5054232;28;20368;-75
2022/02/02 10:36:14;;;;;;;9.88;2.17;;;15.10;62.70;;;;;;5056832;28;20256;-81
2022/02/02 10:38:59;;;;;;;9.43;2.08;;;15.10;63.00;;;;;;5057299;28;20048;-77
2022/02/02 10:41:31;;;;;;;10.02;2.25;;;15.20;62.10;;;;;;5041009;28;20060;-78
2022/02/02 10:44:01;;;;;;;11.48;2.08;;;15.20;62.30;;;;;;5057343;28;20045;-76
2022/02/02 10:49:11;;;;;;;12.45;2.80;;;15.20;61.70;;;;;;5075397;28;20044;-79
2022/02/02 10:51:47;;;;;;;14.75;2.83;;;15.20;61.60;;;;;;5042256;28;20414;-77
2022/02/02 10:57:05;;;;;;;10.13;2.20;;;15.10;61.30;;;;;;5075134;28;20049;-77
2022/02/02 11:07:14;;;;;;;10.23;2.35;;;15.10;63.30;;;;;;5057569;28;20135;-78
2022/02/02 11:09:41;;;;;;;9.57;2.65;;;15.10;63.30;;;;;;5074742;28;20059;-76
2022/02/02 11:12:09;;;;;;;10.57;2.13;;;15.10;63.40;;;;;;5057374;28;20129;-75
2022/02/02 11:14:56;;;;;;;10.05;1.80;;;15.10;63.30;;;;;;5065399;28;20044;-76
2022/02/02 11:17:49;;;;;;;11.30;2.67;;;15.10;63.40;;;;;;5086809;28;20135;-77
2022/02/02 11:20:18;;;;;;;12.45;2.50;;;15.20;63.50;;;;;;5084862;28;20040;-76
2022/02/02 11:22:55;;;;;;;12.52;2.95;;;15.20;63.40;;;;;;5106239;28;20072;-76
2022/02/02 11:25:23;;;;;;;10.38;1.92;;;15.10;63.50;;;;;;5095483;28;20135;-78
2022/02/02 11:27:56;;;;;;;13.10;2.05;;;15.20;63.90;;;;;;5085036;28;20044;-77
2022/02/02 11:30:25;;;;;;;9.65;2.10;;;15.20;64.60;;;;;;5074931;28;20435;-76
2022/02/02 11:32:56;;;;;;;7.53;2.15;;;15.10;63.50;;;;;;5074066;28;20052;-76
2022/02/02 11:35:46;;;;;;;11.50;2.72;;;15.10;64.00;;;;;;5075065;28;20056;-76
2022/02/02 11:38:27;;;;;;;9.38;2.40;;;15.10;64.10;;;;;;5086366;28;20063;-76
2022/02/02 11:41:15;;;;;;;11.35;2.30;;;15.10;64.70;;;;;;5094778;28;20051;-79
2022/02/02 11:43:48;;;;;;;11.10;1.90;;;15.10;64.20;;;;;;5095298;28;20051;-77
2022/02/02 11:47:23;;;;;;;14.57;2.83;;;15.20;64.30;;;;;;5095267;28;20127;-77
2022/02/02 11:49:53;;;;;;;13.55;3.00;;;15.20;63.10;;;;;;5090409;28;20048;-77
2022/02/02 11:52:35;;;;;;;14.00;2.45;;;15.20;61.20;;;;;;5072316;28;20052;-78
2022/02/02 11:55:03;;;;;;;10.18;2.30;;;15.10;60.80;;;;;;5059042;28;20044;-77
2022/02/02 11:57:36;;;;;;;12.60;2.45;;;15.10;60.90;;;;;;5060864;28;20363;-78
2022/02/02 12:05:24;;;;;;;11.73;2.53;;;15.50;60.60;;;;;;5078308;28;20048;-76
2022/02/02 12:07:50;;;;;;;15.98;2.88;;;15.80;60.50;;;;;;5077899;28;20045;-78
2022/02/02 12:10:35;;;;;;;13.23;3.08;;;16.00;60.50;;;;;;5065505;28;20044;-79
2022/02/02 12:58:17;;;;;;;16.90;3.45;;;15.50;63.40;;;;;;5061758;28;20051;-78
2022/02/02 13:03:12;;;;;;;12.65;2.55;;;15.70;62.70;;;;;;5080494;28;20467;-77
2022/02/02 13:05:42;;;;;;;17.25;3.45;;;15.70;62.50;;;;;;5089017;28;20051;-77
2022/02/02 13:08:09;;;;;;;13.68;3.03;;;15.80;62.30;;;;;;5084984;28;20356;-78
2022/02/02 13:10:36;;;;;;;12.30;2.72;;;15.80;62.20;;;;;;5087523;28;20141;-77
2022/02/02 13:13:12;;;;;;;14.20;3.60;;;15.80;62.10;;;;;;5082269;28;20056;-77
2022/02/02 13:18:21;;;;;;;17.38;4.18;;;15.80;62.00;;;;;;5075330;28;20456;-81
2022/02/02 13:23:47;;;;;;;14.23;3.15;;;15.60;64.90;;;;;;5092887;28;20363;-78
2022/02/02 13:26:46;;;;;;;12.45;2.78;;;15.60;64.80;;;;;;5069836;28;20052;-76
2022/02/02 13:29:40;;;;;;;10.23;3.05;;;15.60;64.20;;;;;;5107462;28;20077;-74
2022/02/02 13:32:13;;;;;;;14.30;3.08;;;15.60;64.10;;;;;;5066226;28;20507;-79
2022/02/02 13:51:13;;;;;;;16.73;2.60;;;15.60;64.20;;;;;;5081956;28;20045;-74
2022/02/02 14:07:16;;;;;;;27.38;3.85;;;16.00;63.90;;;;;;5089924;28;20118;-76
2022/02/02 14:33:34;;;;;;;25.60;4.95;;;16.50;62.90;;;;;;5075271;28;20067;-74
2022/02/02 14:36:03;;;;;;;15.68;4.28;;;16.60;62.90;;;;;;5057450;28;20452;-84
2022/02/02 14:38:37;;;;;;;19.30;3.92;;;16.60;62.70;;;;;;5075435;28;20032;-73
2022/02/02 14:44:23;;;;;;;19.15;3.08;;;16.80;62.40;;;;;;5075754;28;20044;-77
2022/02/02 14:46:33;;;;;;;22.38;3.67;;;16.90;62.40;;;;;;5052235;28;20095;-73
2022/02/02 14:49:16;;;;;;;19.00;3.15;;;17.10;62.50;;;;;;5057756;28;20059;-75
2022/02/02 15:24:27;;;;;;;18.95;3.08;;;17.70;62.70;;;;;;5058165;28;20071;-75
2022/02/02 15:32:16;;;;;;;;;;;17.60;62.80;;;;;;5079476;28;20086;-77
2022/02/02 15:34:45;;;;;;;17.10;2.90;;;17.70;63.10;;;;;;5079105;28;20259;-77
2022/02/02 15:37:26;;;;;;;19.45;3.50;;;17.60;63.10;;;;;;5078935;28;20052;-77
2022/02/02 15:40:06;;;;;;;16.35;3.72;;;17.70;63.40;;;;;;5078746;28;20080;-73
2022/02/02 15:57:03;;;;;;;18.20;5.25;;;17.60;61.50;;;;;;5119375;28;20375;-75
2022/02/02 15:59:03;;;;;;;21.45;5.80;;;17.60;63.50;;;;;;5077668;28;20049;-75
2022/02/02 16:04:20;;;;;;;18.75;3.92;;;17.60;62.00;;;;;;5090520;28;20127;-74
2022/02/02 16:06:46;;;;;;;34.63;8.18;;;17.60;62.40;;;;;;5060653;28;20052;-75
2022/02/02 16:11:45;;;;;;;30.73;9.20;;;17.80;62.30;;;;;;5080983;28;20048;-75
2022/02/02 16:14:21;;;;;;;41.65;10.82;;;17.80;62.30;;;;;;5080455;28;20059;-77
2022/02/02 16:19:30;;;;;;;39.47;8.82;;;17.80;62.60;;;;;;5080045;28;20051;-78
2022/02/02 16:25:07;;;;;;;35.80;7.90;;;17.70;60.80;;;;;;5078123;28;20041;-76
2022/02/02 16:36:21;;;;;;;15.52;4.45;;;17.40;56.50;;;;;;5059733;28;20053;-78
2022/02/02 16:39:33;;;;;;;20.65;4.45;;;17.20;54.40;;;;;;5077605;28;20098;-75
2022/02/02 16:44:22;;;;;;;16.75;4.03;;;16.90;54.60;;;;;;5077632;28;20139;-74
2022/02/02 16:46:48;;;;;;;20.40;3.97;;;16.90;54.70;;;;;;5077153;28;20416;-76
2022/02/02 16:49:15;;;;;;;16.08;4.22;;;16.80;55.30;;;;;;5089564;28;20048;-75
2022/02/02 16:51:44;;;;;;;23.40;4.32;;;16.90;55.70;;;;;;5094329;28;20497;-74
2022/02/02 16:54:23;;;;;;;19.70;4.38;;;16.90;55.80;;;;;;5097498;28;20438;-76
2022/02/02 17:29:49;;;;;;;17.85;4.32;;;16.80;61.60;;;;;;5076750;28;20063;-80
2022/02/02 17:34:53;;;;;;;15.63;4.35;;;16.80;61.50;;;;;;5059564;28;20510;-80
2022/02/02 17:40:06;;;;;;;16.05;4.38;;;16.60;61.60;;;;;;5076304;28;20048;-77
2022/02/02 18:20:01;;;;;;;17.10;4.00;;;16.20;62.90;;;;;;5058254;28;20048;-76
2022/02/02 18:22:35;;;;;;;19.15;4.00;;;16.10;62.90;;;;;;5041889;28;20057;-78
2022/02/02 18:25:08;;;;;;;13.35;4.07;;;16.10;62.90;;;;;;5058981;28;20052;-76
2022/02/02 18:27:51;;;;;;;13.55;4.05;;;16.10;62.90;;;;;;5075886;28;20472;-77
2022/02/02 18:30:40;;;;;;;14.02;3.38;;;16.10;62.90;;;;;;5075649;28;20075;-77
2022/02/02 18:35:40;;;;;;;13.20;3.92;;;16.00;62.90;;;;;;5075600;28;20087;-76
2022/02/02 18:48:47;;;;;;;14.68;3.67;;;16.00;63.60;;;;;;5075199;28;20049;-77
2022/02/02 18:53:59;;;;;;;12.75;3.80;;;15.90;63.00;;;;;;5075196;28;20056;-80
2022/02/02 19:40:13;;;;;;;13.40;3.80;;;15.70;63.60;;;;;;5095039;28;20052;-78
2022/02/02 20:12:04;;;;;;;10.60;2.85;;;15.60;63.40;;;;;;5061293;28;20044;-78
2022/02/02 20:14:30;;;;;;;8.65;2.88;;;15.60;63.50;;;;;;5068703;28;20052;-76
2022/02/02 20:16:56;;;;;;;13.60;3.78;;;15.60;63.40;;;;;;5060081;28;20349;-77
2022/02/02 20:19:24;;;;;;;11.43;3.88;;;15.60;63.30;;;;;;5078371;28;20060;-77
2022/02/02 20:21:54;;;;;;;11.68;3.40;;;15.60;63.40;;;;;;5095549;28;20051;-77
2022/02/02 20:24:23;;;;;;;12.05;3.00;;;15.60;63.60;;;;;;5113249;28;20062;-76
2022/02/02 20:26:49;;;;;;;8.82;2.72;;;15.50;63.60;;;;;;5101357;28;20332;-76
2022/02/02 20:29:16;;;;;;;10.30;3.53;;;15.50;63.80;;;;;;5112261;28;20417;-75
2022/02/02 20:31:45;;;;;;;10.90;3.03;;;15.50;64.00;;;;;;5106276;28;20055;-76
2022/02/02 20:34:14;;;;;;;9.90;2.85;;;15.50;64.10;;;;;;5111704;28;20048;-76
2022/02/02 20:36:40;;;;;;;12.68;3.58;;;15.50;64.20;;;;;;5101119;28;20087;-76
2022/02/02 20:39:13;;;;;;;11.90;2.90;;;15.50;64.30;;;;;;5113299;28;20434;-76
2022/02/02 20:41:40;;;;;;;9.25;3.33;;;15.40;64.30;;;;;;5106463;28;20118;-77
2022/02/02 20:44:17;;;;;;;10.77;3.00;;;15.40;64.40;;;;;;5104062;28;20035;-75
2022/02/02 21:01:10;;;;;;;14.35;3.42;;;15.40;64.80;;;;;;5114039;28;20043;-76
2022/02/02 21:06:40;;;;;;;10.35;3.22;;;15.30;64.90;;;;;;5003101;28;20523;-75
2022/02/02 21:14:39;;;;;;;8.32;3.00;;;15.30;65.00;;;;;;5115961;28;20084;-75
2022/02/02 21:17:07;;;;;;;11.50;3.00;;;15.30;65.20;;;;;;5077187;28;20068;-79
2022/02/02 21:19:50;;;;;;;8.70;3.33;;;15.30;65.20;;;;;;5077383;28;20422;-76
2022/02/02 21:22:17;;;;;;;9.02;3.15;;;15.30;65.30;;;;;;5077353;28;20114;-75
2022/02/02 21:24:52;;;;;;;7.57;2.83;;;15.30;65.10;;;;;;5095097;28;20079;-76
2022/02/02 21:27:26;;;;;;;13.07;3.67;;;15.20;64.90;;;;;;5095770;28;20098;-76
2022/02/02 21:29:51;;;;;;;7.93;3.88;;;15.10;65.00;;;;;;5097159;28;20051;-76
2022/02/02 21:32:19;;;;;;;11.00;4.30;;;15.10;64.90;;;;;;5079607;28;20036;-76
2022/02/02 21:34:46;;;;;;;10.38;4.00;;;15.00;65.10;;;;;;5078001;28;20064;-77
2022/02/02 21:37:11;;;;;;;6.22;3.67;;;14.90;65.20;;;;;;5059093;28;20063;-77
2022/02/02 21:39:44;;;;;;;7.03;4.38;;;14.80;65.30;;;;;;5076804;28;20044;-75
2022/02/02 21:42:13;;;;;;;8.43;4.60;;;14.80;65.30;;;;;;5077018;28;20064;-76
2022/02/02 21:44:41;;;;;;;8.93;4.10;;;14.80;65.50;;;;;;5092834;28;20048;-75
2022/02/02 21:47:10;;;;;;;6.63;4.00;;;14.70;65.70;;;;;;5097212;28;20071;-75
2022/02/02 21:49:36;;;;;;;9.25;4.03;;;14.60;65.70;;;;;;5079418;28;20056;-76
2022/02/02 21:52:06;;;;;;;6.32;4.07;;;14.60;66.00;;;;;;5096781;28;20044;-77
2022/02/02 21:54:31;;;;;;;11.27;4.70;;;14.60;66.00;;;;;;5081113;28;20056;-75
2022/02/02 21:56:59;;;;;;;4.63;3.55;;;14.50;66.10;;;;;;5076385;28;20109;-75
2022/02/02 21:59:25;;;;;;;7.60;3.95;;;14.50;66.30;;;;;;5076539;28;20355;-75
2022/02/02 22:01:51;;;;;;;8.88;3.88;;;14.40;66.40;;;;;;5077285;28;20384;-77
2022/02/02 22:04:17;;;;;;;5.13;3.80;;;14.40;66.70;;;;;;5074962;28;20072;-77
2022/02/02 22:06:43;;;;;;;5.93;4.07;;;14.40;66.60;;;;;;5076003;28;20040;-75
2022/02/02 22:09:08;;;;;;;6.00;3.55;;;14.40;66.80;;;;;;5076471;28;20045;-77
2022/02/02 22:11:34;;;;;;;6.50;3.70;;;14.30;66.70;;;;;;5076327;28;20514;-76
2022/02/02 22:14:09;;;;;;;4.90;3.70;;;14.40;66.80;;;;;;5096197;28;20048;-76
2022/02/02 22:16:37;;;;;;;5.13;3.67;;;14.30;66.90;;;;;;5096297;28;20047;-75
2022/02/02 22:19:03;;;;;;;5.43;3.88;;;14.30;67.00;;;;;;5078083;28;20048;-76
2022/02/02 22:21:29;;;;;;;3.72;2.90;;;14.30;67.00;;;;;;5096402;28;20459;-77
2022/02/02 22:23:55;;;;;;;5.07;3.17;;;14.30;67.00;;;;;;5076363;28;20463;-76
2022/02/02 22:26:22;;;;;;;4.60;3.17;;;14.30;67.00;;;;;;5076106;28;20098;-75
2022/02/02 22:28:47;;;;;;;5.18;3.40;;;14.30;66.90;;;;;;5075046;28;20052;-75
2022/02/02 22:31:13;;;;;;;4.05;2.63;;;14.30;67.00;;;;;;5075120;28;20055;-75
2022/02/02 22:33:39;;;;;;;4.20;3.17;;;14.30;67.10;;;;;;5092498;28;20078;-76
2022/02/02 22:36:05;;;;;;;5.55;3.40;;;14.30;67.20;;;;;;5096045;28;20447;-77
2022/02/02 22:38:31;;;;;;;6.93;4.18;;;14.20;67.30;;;;;;5095733;28;20055;-76
2022/02/02 22:40:58;;;;;;;5.35;3.50;;;14.20;67.40;;;;;;5078511;28;20044;-75
2022/02/02 22:43:28;;;;;;;7.10;4.30;;;14.20;67.60;;;;;;5080782;28;20048;-76
2022/02/02 22:45:54;;;;;;;7.00;4.85;;;14.10;67.60;;;;;;5075399;28;20044;-77
2022/02/02 22:48:22;;;;;;;8.20;5.10;;;14.10;68.00;;;;;;5076006;28;20109;-75
2022/02/02 22:50:50;;;;;;;9.25;5.07;;;14.10;68.10;;;;;;5075408;28;20118;-76
2022/02/02 22:53:19;;;;;;;8.48;5.38;;;14.00;68.20;;;;;;5058154;28;20071;-76
2022/02/02 22:55:45;;;;;;;7.45;5.63;;;14.10;68.20;;;;;;5075643;28;20131;-75
2022/02/02 22:58:11;;;;;;;10.68;6.30;;;14.00;68.40;;;;;;5075199;28;20132;-76
2022/02/02 23:00:38;;;;;;;9.52;6.13;;;13.90;68.40;;;;;;5058521;28;20047;-75
2022/02/02 23:03:11;;;;;;;8.25;5.75;;;14.00;68.60;;;;;;5075132;28;20090;-76
2022/02/02 23:05:42;;;;;;;12.60;6.20;;;14.00;69.20;;;;;;5075878;28;20131;-75
2022/02/02 23:08:11;;;;;;;9.98;6.85;;;14.00;68.50;;;;;;5075392;28;20048;-76
2022/02/02 23:10:38;;;;;;;10.77;7.13;;;14.00;68.60;;;;;;5057574;28;20055;-77
2022/02/02 23:13:05;;;;;;;11.77;7.15;;;14.00;68.70;;;;;;5074696;28;20102;-76
2022/02/02 23:15:52;;;;;;;12.45;8.57;;;14.00;68.90;;;;;;5075468;28;20051;-76
2022/02/02 23:18:23;;;;;;;12.63;7.78;;;13.90;69.00;;;;;;5040896;28;20127;-75
2022/02/02 23:20:55;;;;;;;13.27;7.55;;;13.80;69.10;;;;;;5075450;28;20048;-76
2022/02/02 23:23:27;;;;;;;14.27;7.88;;;13.90;69.00;;;;;;5057574;28;20040;-77
2022/02/02 23:25:54;;;;;;;14.05;8.63;;;13.90;69.20;;;;;;5074993;28;20044;-77
2022/02/02 23:28:30;;;;;;;15.45;8.52;;;13.80;69.80;;;;;;5074765;28;20052;-77
2022/02/02 23:30:57;;;;;;;15.82;9.52;;;13.80;69.20;;;;;;5075170;28;20056;-74
2022/02/02 23:33:23;;;;;;;12.65;8.55;;;13.80;69.30;;;;;;5088276;28;20119;-74
2022/02/02 23:35:49;;;;;;;12.55;8.27;;;13.80;69.40;;;;;;5095084;28;20087;-76
2022/02/02 23:38:16;;;;;;;14.10;8.40;;;13.80;69.50;;;;;;5095627;28;20109;-76
2022/02/02 23:42:08;;;;;;;13.55;7.95;;;13.80;69.60;;;;;;5094966;28;20423;-77
2022/02/02 23:43:40;;;;;;;13.23;8.27;;;13.80;69.60;;;;;;5040137;28;20099;-76
2022/02/02 23:46:16;;;;;;;13.68;8.70;;;13.80;69.50;;;;;;5075008;28;20094;-76
2022/02/02 23:48:49;;;;;;;11.30;7.47;;;13.80;69.60;;;;;;5075023;28;20127;-75